Birney, MT (59012)

11:00 AM MDT on September 22, 2014 (GMT -0600)
RAWS FORT HOWES MT US | Change Station
CLOSE
Current Station
Personal Weather Station
Location: Otter, MT
Elevation: 3443 ft
Nearby Weather Stations

Elev 3443 ft 45.30 °N, 106.16 °W | Updated 33 minutes ago

Clear
Clear
72 °F
Feels Like 77 °F
N
5
Wind Variable Wind from SSE
Gusts 11.0 mph

Today
High -- | Low -- °F
--% Chance of Precip.
Yesterday
High -- | Low -- °F
Precip. -- in
6:53 AM 7:03 PM
Waning Crescent, 2% visible
Pressure 29.89 in
Visibility 10.0 miles
Clouds Clear
Heat Index 77 °F
Dew Point 46 °F
Humidity 40%
Rainfall 0.00 in
Snow Depth 0 in , 1 in , 0 in
UV 5 out of 12
Pollen 4.70 out of 12
Air Quality Not available.
Flu Activity Not available.
METAR KSHR 221653Z AUTO 04003KT 10SM CLR 22/08 A2998 RMK AO2 SLP121 T02170083

More Conditions Fewer Conditions

Pressure 29.89 in
Visibility 10.0 miles
Clouds Clear
Heat Index 77 °F
Dew Point 46 °F
Humidity 40%
Rainfall 0.00 in
Snow Depth 0 in , 1 in , 0 in
UV 5 out of 12
Pollen 4.70 out of 12
Air Quality Not available.
Flu Activity Not available.
METAR KSHR 221653Z AUTO 04003KT 10SM CLR 22/08 A2998 RMK AO2 SLP121 T02170083

More Conditions Fewer Conditions

10-Day Weather Forecast

Almanac

Astronomy

Sep. 22, 2014 Rise Set
Actual Time 6:53 AM MDT 7:03 PM MDT
Civil Twilight 6:23 AM MDT 7:32 PM MDT
Nautical Twilight 5:48 AM MDT 8:07 PM MDT
Astronomical Twilight 5:13 AM MDT 8:42 PM MDT
Moon 5:21 AM MDT 6:14 PM MDT
Length of Visible Light 13h 09m
Length of Day
12h 10m
Tomorrow will be 3m 8s shorter.
Waning Crescent, 2% of the Moon is Illuminated
Today
Waning Crescent
Sep 24
New
Oct 1
First Quarter
Oct 8
Full
Oct 15
Last Quarter

Today's Extremes

State Highs State Lows

Community

WunderPhotos

Upload Photos

1,755,487 photos uploaded!

WunderBlogs® & News

Nearby

Snow Depth

Station Depth Elevation
Rocky Boy 0 in 4700 ft
Wood Creek 1 in 5960 ft
Dupuyer Creek 0 in 5750 ft
Lakeview Ridge 0 in 7400 ft
Calvert Creek 0 in 6430 ft

Earthquake Activity

City Distance Mag. Time & Date
No recent earthquake activity has been reported nearby.
Minimum magnitude displayed is 2.5.

Coastal Water Temperatures

Place Temperature
No Stations Reporting

Nearby Weather Stations